Time;durP1;ratioP1;P1;durP2;ratioP2;P2;SDS_P1;SDS_P2;PMS_P1;PMS_P2;Temp;Humidity;BMP_temperature;BMP_pressure;BME280_temperature;BME280_humidity;BME280_pressure;Samples;Min_cycle;Max_cycle;Signal;HPM_P1;HPM_P2
2023/03/03 00:01:09;;;;;;;27.65;17.10;;;2.20;99.90;;;;;;5057463;28;20200;-48
2023/03/03 00:03:35;;;;;;;26.63;17.05;;;2.40;99.90;;;;;;5057421;28;20192;-47
2023/03/03 00:06:03;;;;;;;24.13;15.50;;;2.30;99.90;;;;;;5056491;28;20224;-47
2023/03/03 00:08:31;;;;;;;22.65;15.90;;;2.10;99.90;;;;;;5056416;28;20196;-48
2023/03/03 00:11:01;;;;;;;22.50;15.98;;;2.40;99.90;;;;;;5056890;28;20660;-48
2023/03/03 00:13:30;;;;;;;23.63;15.95;;;2.30;99.90;;;;;;5056884;28;20690;-47
2023/03/03 00:16:14;;;;;;;23.60;16.23;;;2.20;99.90;;;;;;5056495;28;20227;-48
2023/03/03 00:18:43;;;;;;;25.42;16.50;;;1.90;99.90;;;;;;5056852;28;20200;-48
2023/03/03 00:21:24;;;;;;;26.77;17.85;;;1.70;99.90;;;;;;5056765;28;20253;-49
2023/03/03 00:23:51;;;;;;;28.17;16.80;;;2.20;99.90;;;;;;5056481;28;20282;-47
2023/03/03 00:26:22;;;;;;;26.15;16.75;;;1.70;99.90;;;;;;5055316;28;20232;-48
2023/03/03 00:28:51;;;;;;;28.38;17.08;;;2.20;99.90;;;;;;5055161;28;20265;-48
2023/03/03 00:31:20;;;;;;;29.20;16.83;;;2.00;99.90;;;;;;5056521;28;20721;-47
2023/03/03 00:33:53;;;;;;;29.40;17.38;;;2.00;99.90;;;;;;5055522;28;20684;-48
2023/03/03 00:36:31;;;;;;;25.88;17.50;;;2.00;99.90;;;;;;5055460;28;20627;-48
2023/03/03 00:39:11;;;;;;;25.15;16.80;;;2.30;99.90;;;;;;5053748;28;20242;-49
2023/03/03 00:41:40;;;;;;;28.63;15.93;;;2.00;99.90;;;;;;5054102;28;20204;-49
2023/03/03 00:44:32;;;;;;;25.38;16.25;;;2.00;99.90;;;;;;5054134;28;20196;-48
2023/03/03 00:47:11;;;;;;;28.95;18.20;;;2.30;99.90;;;;;;5055057;28;20223;-48
2023/03/03 00:49:39;;;;;;;26.30;16.13;;;2.00;99.90;;;;;;5054760;28;20195;-47
2023/03/03 00:52:13;;;;;;;23.20;16.00;;;2.40;99.90;;;;;;5053813;28;20215;-47
2023/03/03 00:54:40;;;;;;;28.23;16.90;;;2.20;99.90;;;;;;5054782;28;20223;-47
2023/03/03 00:57:08;;;;;;;25.50;16.98;;;2.30;99.90;;;;;;5053548;28;20204;-48
2023/03/03 00:59:36;;;;;;;26.38;16.88;;;2.40;99.90;;;;;;5053300;28;20660;-49
2023/03/03 01:02:02;;;;;;;26.60;15.32;;;1.60;99.90;;;;;;5054740;28;20188;-49
2023/03/03 01:04:29;;;;;;;28.75;16.40;;;2.20;99.90;;;;;;5054281;28;20196;-49
2023/03/03 01:06:56;;;;;;;25.88;16.80;;;2.00;99.90;;;;;;5054287;28;20229;-47
2023/03/03 01:09:23;;;;;;;23.30;15.32;;;2.40;99.90;;;;;;5054579;28;20222;-48
2023/03/03 01:11:50;;;;;;;24.70;16.80;;;2.10;99.90;;;;;;5053324;28;20235;-48
2023/03/03 01:14:18;;;;;;;23.50;14.70;;;2.30;99.90;;;;;;5054572;28;20235;-48
2023/03/03 01:16:45;;;;;;;26.42;17.35;;;2.30;99.90;;;;;;5054467;28;20231;-48
2023/03/03 01:19:11;;;;;;;25.20;18.27;;;2.50;99.90;;;;;;5052853;28;20210;-49
2023/03/03 01:21:38;;;;;;;26.20;16.50;;;2.00;99.90;;;;;;5054586;28;20589;-48
2023/03/03 01:24:05;;;;;;;27.05;15.93;;;2.00;99.90;;;;;;5053153;28;20688;-48
2023/03/03 01:26:32;;;;;;;34.25;18.77;;;2.40;99.90;;;;;;5054373;28;20724;-47
2023/03/03 01:28:59;;;;;;;31.95;17.90;;;2.00;99.90;;;;;;5053844;28;20645;-47
2023/03/03 01:31:27;;;;;;;29.52;19.60;;;2.20;99.90;;;;;;5054263;28;20268;-49
2023/03/03 01:33:53;;;;;;;28.90;17.73;;;2.20;99.90;;;;;;5054049;28;20227;-48
2023/03/03 01:36:23;;;;;;;29.95;18.73;;;2.40;99.90;;;;;;5052849;28;20260;-48
2023/03/03 01:38:50;;;;;;;32.40;18.63;;;2.40;99.90;;;;;;5053910;28;20192;-48
2023/03/03 01:41:17;;;;;;;27.52;17.38;;;1.70;99.90;;;;;;5054095;28;20204;-48
2023/03/03 01:43:46;;;;;;;31.92;19.48;;;2.40;99.90;;;;;;5052754;28;20200;-48
2023/03/03 01:46:36;;;;;;;30.15;18.40;;;2.40;99.90;;;;;;5053954;28;20307;-48
2023/03/03 01:49:07;;;;;;;30.77;17.63;;;1.80;99.90;;;;;;5053904;28;20223;-48
2023/03/03 01:51:38;;;;;;;30.45;16.95;;;2.30;99.90;;;;;;5054164;28;20204;-49
2023/03/03 01:54:10;;;;;;;27.17;16.80;;;2.30;99.90;;;;;;5052476;28;20219;-48
2023/03/03 01:56:38;;;;;;;28.15;18.83;;;2.20;99.90;;;;;;5053783;28;20214;-48
2023/03/03 01:59:10;;;;;;;29.73;18.17;;;2.20;99.90;;;;;;5052070;28;20691;-48
2023/03/03 02:01:38;;;;;;;32.67;18.20;;;2.10;99.90;;;;;;5052352;28;20212;-48
2023/03/03 02:04:05;;;;;;;26.73;18.08;;;2.10;99.90;;;;;;5053536;28;20196;-48
2023/03/03 02:06:37;;;;;;;31.15;19.55;;;2.50;99.90;;;;;;5054882;28;20242;-49
2023/03/03 02:09:10;;;;;;;30.27;19.33;;;2.50;99.90;;;;;;5054715;28;20275;-48
2023/03/03 02:11:38;;;;;;;34.58;20.83;;;2.30;99.90;;;;;;5055410;28;20258;-49
2023/03/03 02:14:05;;;;;;;32.92;20.92;;;2.00;99.90;;;;;;5053884;28;20688;-47
2023/03/03 02:16:32;;;;;;;36.80;21.00;;;2.20;99.90;;;;;;5054029;28;20241;-48
2023/03/03 02:19:01;;;;;;;35.90;22.27;;;2.40;99.90;;;;;;5052358;28;20577;-48
2023/03/03 02:21:28;;;;;;;37.25;24.48;;;2.50;99.90;;;;;;5052961;28;20199;-48
2023/03/03 02:24:00;;;;;;;40.40;25.52;;;2.80;99.90;;;;;;5052467;28;20207;-48
2023/03/03 02:26:30;;;;;;;36.83;23.92;;;2.20;99.90;;;;;;5052236;28;20311;-48
2023/03/03 02:29:03;;;;;;;44.35;27.05;;;1.60;99.90;;;;;;5051644;28;20195;-48
2023/03/03 02:31:31;;;;;;;32.80;21.80;;;2.60;99.90;;;;;;5051800;28;20245;-48
2023/03/03 02:33:59;;;;;;;28.02;19.55;;;2.30;99.90;;;;;;5051741;28;20700;-49
2023/03/03 02:36:28;;;;;;;29.98;20.83;;;2.30;99.90;;;;;;5052954;28;20215;-48
2023/03/03 02:39:02;;;;;;;60.05;32.85;;;2.40;99.90;;;;;;5052841;28;20188;-48
2023/03/03 02:41:34;;;;;;;44.08;31.10;;;2.50;99.90;;;;;;5053082;28;20211;-49
2023/03/03 02:44:04;;;;;;;40.05;23.85;;;2.20;99.90;;;;;;5051720;28;20202;-48
2023/03/03 02:46:34;;;;;;;36.03;21.38;;;2.20;99.90;;;;;;5051752;28;20625;-48
2023/03/03 02:49:01;;;;;;;51.00;26.77;;;2.20;99.90;;;;;;5051206;28;20727;-48
2023/03/03 02:51:28;;;;;;;37.90;22.10;;;2.40;99.90;;;;;;5051682;28;20246;-48
2023/03/03 02:53:55;;;;;;;33.08;20.77;;;1.70;99.90;;;;;;5051430;28;20735;-47
2023/03/03 02:56:23;;;;;;;36.17;20.00;;;2.80;99.90;;;;;;5051258;28;20231;-48
2023/03/03 02:58:51;;;;;;;29.02;19.45;;;2.10;99.90;;;;;;5052560;28;20192;-48
2023/03/03 03:01:19;;;;;;;31.70;19.80;;;2.00;99.90;;;;;;5051570;28;20204;-48
2023/03/03 03:03:46;;;;;;;28.70;19.60;;;2.40;99.90;;;;;;5051314;28;20660;-48
2023/03/03 03:06:16;;;;;;;35.83;21.50;;;2.10;99.90;;;;;;5051275;28;20235;-48
2023/03/03 03:08:43;;;;;;;29.58;18.25;;;2.20;99.90;;;;;;5050864;28;20254;-49
2023/03/03 03:11:10;;;;;;;29.30;19.05;;;1.60;99.90;;;;;;5052387;28;20211;-48
2023/03/03 03:13:38;;;;;;;27.38;18.95;;;2.00;99.90;;;;;;5050975;28;20200;-48
2023/03/03 03:16:07;;;;;;;26.15;19.27;;;1.90;99.90;;;;;;5050936;28;20261;-47
2023/03/03 03:18:34;;;;;;;28.00;18.33;;;2.20;99.90;;;;;;5050586;28;20207;-49
2023/03/03 03:21:12;;;;;;;33.33;19.95;;;2.20;99.90;;;;;;5051068;28;20200;-48
2023/03/03 03:23:40;;;;;;;28.00;17.52;;;2.00;99.90;;;;;;5050950;28;20230;-49
2023/03/03 03:26:07;;;;;;;32.22;20.30;;;2.00;99.90;;;;;;5050921;28;20223;-47
2023/03/03 03:28:35;;;;;;;33.72;20.73;;;2.10;99.90;;;;;;5050133;28;20303;-48
2023/03/03 03:31:03;;;;;;;28.30;18.75;;;1.90;99.90;;;;;;5050813;28;20227;-48
2023/03/03 03:33:31;;;;;;;33.85;20.05;;;2.10;99.90;;;;;;5050794;28;20204;-49
2023/03/03 03:36:00;;;;;;;36.67;20.35;;;2.10;99.90;;;;;;5050600;28;20275;-47
2023/03/03 03:38:28;;;;;;;36.15;20.50;;;1.90;99.90;;;;;;5050401;28;20196;-47
2023/03/03 03:40:55;;;;;;;40.97;24.15;;;2.00;99.90;;;;;;5050791;28;20211;-47
2023/03/03 03:43:22;;;;;;;37.67;21.00;;;1.50;99.90;;;;;;5050701;28;20198;-48
2023/03/03 03:45:49;;;;;;;33.10;20.40;;;2.20;99.90;;;;;;5051776;28;20215;-50
2023/03/03 03:48:18;;;;;;;32.72;19.73;;;2.10;99.90;;;;;;5051635;28;20379;-47
2023/03/03 03:50:47;;;;;;;34.60;20.75;;;2.10;99.90;;;;;;5050602;28;20204;-47
2023/03/03 03:53:14;;;;;;;32.30;20.63;;;2.10;99.90;;;;;;5050838;28;20537;-47
2023/03/03 03:55:41;;;;;;;28.40;17.98;;;1.90;99.90;;;;;;5050336;28;20319;-47
2023/03/03 03:58:08;;;;;;;29.30;18.08;;;2.10;99.90;;;;;;5050226;28;20257;-48
2023/03/03 04:00:35;;;;;;;26.05;16.23;;;2.10;99.90;;;;;;5050504;28;20219;-49
2023/03/03 04:03:02;;;;;;;25.42;16.27;;;1.40;99.90;;;;;;5050381;28;20220;-48
2023/03/03 04:05:28;;;;;;;26.98;16.13;;;2.10;99.90;;;;;;5050512;28;20688;-49
2023/03/03 04:07:57;;;;;;;32.05;17.85;;;1.80;99.90;;;;;;5050407;28;20203;-48
2023/03/03 04:10:24;;;;;;;27.67;18.00;;;1.80;99.90;;;;;;5050114;28;20208;-48
2023/03/03 04:12:51;;;;;;;27.95;17.33;;;1.70;99.90;;;;;;5051648;28;20199;-49
2023/03/03 04:15:18;;;;;;;32.35;18.27;;;1.30;99.90;;;;;;5051460;28;20227;-48
2023/03/03 04:17:44;;;;;;;27.88;17.88;;;2.40;99.90;;;;;;5050370;28;20206;-47
2023/03/03 04:20:14;;;;;;;28.90;18.77;;;2.00;99.90;;;;;;5050056;28;20207;-48
2023/03/03 04:22:41;;;;;;;31.05;17.52;;;2.00;99.90;;;;;;5051874;28;20856;-48
2023/03/03 04:25:12;;;;;;;30.17;18.55;;;1.80;99.90;;;;;;5051589;28;20692;-48
2023/03/03 04:27:42;;;;;;;30.60;18.70;;;2.00;99.90;;;;;;5050480;28;20211;-48
2023/03/03 04:30:10;;;;;;;26.30;17.25;;;2.10;99.90;;;;;;5049890;28;20636;-48
2023/03/03 04:32:38;;;;;;;29.13;18.83;;;2.00;99.90;;;;;;5050227;28;20570;-49
2023/03/03 04:35:09;;;;;;;31.48;18.38;;;1.80;99.90;;;;;;5049880;28;20231;-47
2023/03/03 04:37:39;;;;;;;30.60;18.55;;;1.90;99.90;;;;;;5050318;28;20224;-47
2023/03/03 04:40:10;;;;;;;29.88;18.58;;;2.00;99.90;;;;;;5050283;28;20660;-48
2023/03/03 04:42:37;;;;;;;27.60;17.25;;;1.80;99.90;;;;;;5054088;28;20204;-47
2023/03/03 04:45:06;;;;;;;28.52;18.70;;;2.20;99.90;;;;;;5053951;28;20208;-47
2023/03/03 04:47:34;;;;;;;29.48;18.40;;;1.90;99.90;;;;;;5053934;28;20200;-50
2023/03/03 04:50:00;;;;;;;31.73;19.25;;;1.90;99.90;;;;;;5053759;28;20206;-48
2023/03/03 04:52:30;;;;;;;27.45;17.70;;;2.00;99.90;;;;;;5054837;28;20204;-48
2023/03/03 04:54:57;;;;;;;32.90;16.17;;;2.20;99.90;;;;;;5054500;28;20558;-49
2023/03/03 04:57:26;;;;;;;30.08;15.38;;;1.90;99.90;;;;;;5054264;28;20208;-48
2023/03/03 04:59:54;;;;;;;21.45;14.45;;;1.90;99.90;;;;;;5053835;28;20250;-48
2023/03/03 05:02:20;;;;;;;25.38;15.35;;;2.00;99.90;;;;;;5055201;28;20199;-48
2023/03/03 05:04:48;;;;;;;22.20;15.35;;;1.70;99.90;;;;;;5053783;28;20207;-48
2023/03/03 05:07:14;;;;;;;24.52;16.02;;;1.70;99.90;;;;;;5055042;28;20199;-49
2023/03/03 05:09:41;;;;;;;20.33;14.25;;;1.90;99.90;;;;;;5054417;28;20557;-48
2023/03/03 05:12:08;;;;;;;25.20;15.57;;;1.90;99.90;;;;;;5054828;28;20567;-48
2023/03/03 05:14:36;;;;;;;29.55;17.42;;;1.80;99.90;;;;;;5054866;28;20231;-50
2023/03/03 05:17:03;;;;;;;26.13;17.10;;;1.30;99.90;;;;;;5054934;28;20240;-48
2023/03/03 05:19:30;;;;;;;23.10;15.88;;;2.20;99.90;;;;;;5054157;28;20202;-49
2023/03/03 05:21:57;;;;;;;29.08;17.45;;;1.90;99.90;;;;;;5053413;28;20639;-48
2023/03/03 05:24:24;;;;;;;26.77;17.65;;;1.20;99.90;;;;;;5054497;28;20192;-48
2023/03/03 05:26:51;;;;;;;25.85;17.55;;;2.00;99.90;;;;;;5054728;28;20230;-50
2023/03/03 05:29:17;;;;;;;27.30;16.63;;;1.90;99.90;;;;;;5054035;28;20202;-49
2023/03/03 05:31:45;;;;;;;26.95;16.45;;;2.10;99.90;;;;;;5054498;28;20204;-48
2023/03/03 05:34:12;;;;;;;29.08;17.90;;;2.00;99.90;;;;;;5054122;28;20192;-48
2023/03/03 05:36:38;;;;;;;27.98;17.77;;;2.30;99.90;;;;;;5054271;28;20223;-49
2023/03/03 05:39:05;;;;;;;27.33;17.77;;;1.60;99.90;;;;;;5053877;28;20192;-48
2023/03/03 05:41:35;;;;;;;32.38;19.48;;;1.90;99.90;;;;;;5054587;28;20200;-49
2023/03/03 05:44:02;;;;;;;33.83;17.63;;;2.10;99.90;;;;;;5054213;28;20195;-49
2023/03/03 05:46:29;;;;;;;30.00;18.63;;;2.30;99.90;;;;;;5053759;28;20277;-48
2023/03/03 05:48:57;;;;;;;22.13;14.82;;;2.00;99.90;;;;;;5053633;28;20200;-48
2023/03/03 05:51:23;;;;;;;25.10;15.70;;;1.80;99.90;;;;;;5052323;28;20203;-48
2023/03/03 05:53:50;;;;;;;29.05;18.52;;;1.90;99.90;;;;;;5053953;28;20560;-49
2023/03/03 05:56:17;;;;;;;30.05;16.35;;;2.00;99.90;;;;;;5052428;28;20281;-47
2023/03/03 05:58:44;;;;;;;24.92;16.27;;;1.90;99.90;;;;;;5053389;28;20193;-49
2023/03/03 06:01:10;;;;;;;28.83;17.17;;;2.20;99.90;;;;;;5053876;28;20209;-48
2023/03/03 06:03:37;;;;;;;28.35;16.20;;;2.20;99.90;;;;;;5053490;28;20196;-49
2023/03/03 06:06:05;;;;;;;30.38;17.98;;;2.30;99.90;;;;;;5053306;28;20219;-49
2023/03/03 06:08:32;;;;;;;26.17;17.50;;;2.10;99.90;;;;;;5053360;28;20672;-48
2023/03/03 06:10:59;;;;;;;24.42;14.60;;;1.90;99.90;;;;;;5053479;28;20203;-48
2023/03/03 06:13:26;;;;;;;24.77;16.27;;;2.00;99.90;;;;;;5052071;28;20207;-50
2023/03/03 06:15:52;;;;;;;20.23;13.25;;;2.20;99.90;;;;;;5052896;28;20232;-48
2023/03/03 06:18:19;;;;;;;23.58;13.82;;;2.00;99.90;;;;;;5053047;28;20669;-49
2023/03/03 06:20:50;;;;;;;29.50;14.25;;;1.80;99.90;;;;;;5053112;28;20677;-50
2023/03/03 06:23:18;;;;;;;26.60;16.02;;;1.80;99.90;;;;;;5053318;28;20207;-48
2023/03/03 06:25:45;;;;;;;22.67;14.35;;;1.70;99.90;;;;;;5053254;28;20212;-49
2023/03/03 06:28:12;;;;;;;22.50;13.75;;;1.20;99.90;;;;;;5052869;28;20204;-49
2023/03/03 06:30:39;;;;;;;29.88;13.40;;;1.60;99.90;;;;;;5052603;28;20203;-49
2023/03/03 06:33:05;;;;;;;21.48;13.65;;;1.60;99.90;;;;;;5052811;28;20196;-49
2023/03/03 06:35:32;;;;;;;21.67;13.35;;;1.10;99.90;;;;;;5052728;28;20228;-50
2023/03/03 06:37:59;;;;;;;24.20;15.00;;;1.60;99.90;;;;;;5052961;28;20207;-48
2023/03/03 06:40:27;;;;;;;21.35;12.80;;;1.30;99.90;;;;;;5052709;28;20196;-49
2023/03/03 06:42:54;;;;;;;21.05;13.82;;;1.10;99.90;;;;;;5052772;28;20207;-50
2023/03/03 06:45:21;;;;;;;24.83;14.20;;;1.40;99.90;;;;;;5052913;28;20222;-49
2023/03/03 06:47:47;;;;;;;19.45;12.75;;;1.60;99.90;;;;;;5051373;28;20203;-51
2023/03/03 06:50:18;;;;;;;21.42;13.98;;;1.70;99.90;;;;;;5052591;28;20196;-49
2023/03/03 06:52:45;;;;;;;17.48;11.18;;;1.60;99.90;;;;;;5051734;28;20283;-49
2023/03/03 06:55:23;;;;;;;18.42;12.32;;;1.60;99.90;;;;;;5052307;28;20687;-49
2023/03/03 06:57:54;;;;;;;22.08;12.85;;;1.50;99.90;;;;;;5053607;28;20191;-49
2023/03/03 07:00:25;;;;;;;30.17;18.45;;;1.50;99.90;;;;;;5053233;28;20210;-50
2023/03/03 07:02:59;;;;;;;19.27;12.95;;;1.40;99.90;;;;;;5052385;28;20230;-48
2023/03/03 07:05:28;;;;;;;20.92;12.88;;;1.60;99.90;;;;;;5053340;28;20212;-48
2023/03/03 07:07:55;;;;;;;30.45;14.60;;;1.40;99.90;;;;;;5053658;28;20196;-49
2023/03/03 07:10:24;;;;;;;21.42;13.13;;;1.70;99.90;;;;;;5052775;28;20188;-49
2023/03/03 07:12:53;;;;;;;21.88;13.13;;;1.70;99.90;;;;;;5053046;28;20283;-49
2023/03/03 07:15:23;;;;;;;23.70;13.32;;;1.80;99.90;;;;;;5052804;28;20235;-48
2023/03/03 07:17:56;;;;;;;19.67;13.32;;;2.20;99.90;;;;;;5052963;28;20200;-49
2023/03/03 07:20:25;;;;;;;18.05;12.38;;;2.10;99.90;;;;;;5052968;28;20193;-48
2023/03/03 07:22:52;;;;;;;22.08;13.55;;;2.00;99.90;;;;;;5053042;28;20192;-48
2023/03/03 07:25:25;;;;;;;21.40;13.10;;;2.00;99.90;;;;;;5052443;28;20234;-48
2023/03/03 07:27:55;;;;;;;25.38;13.98;;;1.90;99.90;;;;;;5052098;28;20200;-50
2023/03/03 07:30:26;;;;;;;21.75;14.10;;;1.80;99.90;;;;;;5052512;28;20291;-48
2023/03/03 07:32:55;;;;;;;20.83;13.38;;;2.00;99.90;;;;;;5052556;28;20641;-48
2023/03/03 07:35:35;;;;;;;25.48;14.70;;;1.40;99.90;;;;;;5053085;28;20242;-49
2023/03/03 07:38:02;;;;;;;26.40;15.20;;;1.60;99.90;;;;;;5052792;28;20195;-48
2023/03/03 07:40:36;;;;;;;26.30;15.13;;;2.20;99.90;;;;;;5053022;28;20206;-48
2023/03/03 07:43:26;;;;;;;24.27;14.38;;;2.10;99.90;;;;;;5051612;28;20667;-49
2023/03/03 07:46:02;;;;;;;24.88;13.60;;;1.90;99.90;;;;;;5052921;28;20239;-47
2023/03/03 07:48:34;;;;;;;23.55;13.88;;;2.10;99.90;;;;;;5052405;28;20227;-49
2023/03/03 07:51:04;;;;;;;26.08;14.55;;;2.10;99.90;;;;;;5052086;28;20259;-48
2023/03/03 07:53:36;;;;;;;23.85;13.38;;;1.80;99.90;;;;;;5050506;28;20218;-49
2023/03/03 07:56:07;;;;;;;26.25;13.05;;;1.90;99.90;;;;;;5051727;28;20227;-49
2023/03/03 07:58:39;;;;;;;23.50;11.98;;;2.00;99.90;;;;;;5051934;28;20200;-49
2023/03/03 08:01:28;;;;;;;25.98;14.20;;;2.00;99.90;;;;;;5051552;28;20199;-48
2023/03/03 08:03:56;;;;;;;21.88;12.55;;;2.10;99.90;;;;;;5051451;28;20206;-49
2023/03/03 08:06:44;;;;;;;22.08;13.23;;;2.10;99.90;;;;;;5051222;28;20218;-49
2023/03/03 08:09:27;;;;;;;24.00;13.52;;;2.00;99.90;;;;;;5050992;28;20196;-48
2023/03/03 08:11:57;;;;;;;32.70;13.93;;;2.50;99.90;;;;;;5051355;28;20200;-49
2023/03/03 08:14:29;;;;;;;28.30;13.23;;;2.40;99.90;;;;;;5052305;28;20202;-48
2023/03/03 08:16:56;;;;;;;30.98;15.88;;;2.60;99.90;;;;;;5055270;28;20223;-48
2023/03/03 08:19:24;;;;;;;32.72;16.73;;;2.20;99.90;;;;;;5054896;28;20218;-48
2023/03/03 08:21:52;;;;;;;35.15;16.70;;;2.00;99.90;;;;;;5055692;28;20388;-50
2023/03/03 08:24:19;;;;;;;31.10;17.05;;;2.70;99.90;;;;;;5055880;28;20198;-48
2023/03/03 08:26:45;;;;;;;23.23;13.63;;;2.90;99.90;;;;;;5055835;28;20212;-48
2023/03/03 08:29:12;;;;;;;25.27;14.93;;;2.90;99.90;;;;;;5055236;28;20203;-49
2023/03/03 08:31:40;;;;;;;21.17;13.77;;;2.50;99.90;;;;;;5055010;28;20196;-48
2023/03/03 08:34:07;;;;;;;28.25;17.45;;;2.90;99.90;;;;;;5055035;28;20211;-49
2023/03/03 08:36:33;;;;;;;28.73;14.85;;;2.90;99.90;;;;;;5054931;28;20639;-48
2023/03/03 08:39:00;;;;;;;32.55;17.10;;;3.20;99.90;;;;;;5054590;28;20199;-48
2023/03/03 08:41:27;;;;;;;33.80;19.90;;;2.80;99.90;;;;;;5055192;28;20207;-50
2023/03/03 08:43:54;;;;;;;41.03;22.05;;;2.90;99.90;;;;;;5054744;28;20257;-49
2023/03/03 08:46:20;;;;;;;41.92;23.10;;;3.10;99.90;;;;;;5054694;28;20208;-49
2023/03/03 08:48:48;;;;;;;30.42;18.92;;;3.30;99.90;;;;;;5054457;28;20200;-50
2023/03/03 08:51:16;;;;;;;22.10;13.95;;;3.40;99.90;;;;;;5054623;28;20192;-49
2023/03/03 08:53:43;;;;;;;15.43;9.27;;;3.00;99.90;;;;;;5054586;28;20207;-49
2023/03/03 08:56:10;;;;;;;13.52;8.75;;;3.20;99.90;;;;;;5054531;28;20220;-48
2023/03/03 08:58:36;;;;;;;17.88;8.68;;;3.20;99.90;;;;;;5054620;28;20196;-49
2023/03/03 09:01:04;;;;;;;20.48;11.48;;;2.50;99.90;;;;;;5054618;28;20242;-49
2023/03/03 09:03:30;;;;;;;19.80;10.07;;;3.20;99.90;;;;;;5054613;28;20242;-49
2023/03/03 09:05:59;;;;;;;15.95;9.32;;;2.90;99.90;;;;;;5054525;28;20212;-49
2023/03/03 09:08:25;;;;;;;15.35;9.43;;;3.20;99.90;;;;;;5054258;28;20290;-49
2023/03/03 09:10:52;;;;;;;15.55;10.02;;;2.80;99.90;;;;;;5054547;28;20196;-50
2023/03/03 09:13:20;;;;;;;32.25;14.15;;;3.40;99.90;;;;;;5054137;28;20211;-50
2023/03/03 09:15:48;;;;;;;27.50;15.50;;;3.30;99.90;;;;;;5054208;28;20227;-49
2023/03/03 09:18:17;;;;;;;27.30;16.48;;;3.60;99.90;;;;;;5054000;28;20303;-50
2023/03/03 09:20:45;;;;;;;24.17;13.82;;;3.60;99.90;;;;;;5052916;28;20215;-48
2023/03/03 09:23:35;;;;;;;27.05;17.17;;;3.60;99.90;;;;;;5054180;28;20204;-48
2023/03/03 09:26:29;;;;;;;32.15;19.30;;;4.00;99.90;;;;;;5053316;28;20216;-50
2023/03/03 09:29:01;;;;;;;29.40;22.80;;;4.20;99.90;;;;;;5047557;28;20979;-48
2023/03/03 09:31:36;;;;;;;30.15;21.17;;;4.20;99.90;;;;;;5054029;28;20545;-48
2023/03/03 09:34:10;;;;;;;21.65;17.02;;;4.50;99.90;;;;;;5054082;28;20210;-49
2023/03/03 09:36:38;;;;;;;28.65;18.52;;;4.40;99.90;;;;;;5053912;28;20706;-49
2023/03/03 09:39:17;;;;;;;29.75;18.17;;;4.50;99.90;;;;;;5052461;28;20218;-48
2023/03/03 09:42:26;;;;;;;22.55;15.80;;;4.20;99.90;;;;;;5054187;28;20192;-50
2023/03/03 09:45:18;;;;;;;26.08;19.63;;;4.60;99.90;;;;;;4995262;28;20205;-51
2023/03/03 09:47:56;;;;;;;17.92;13.48;;;4.30;99.90;;;;;;5051094;28;20208;-49
2023/03/03 09:50:35;;;;;;;19.67;12.82;;;4.20;99.90;;;;;;5053420;28;20547;-49
2023/03/03 09:53:12;;;;;;;14.43;10.95;;;4.20;99.90;;;;;;5053670;28;20314;-50
2023/03/03 09:55:49;;;;;;;14.55;10.57;;;4.50;99.90;;;;;;5053416;28;20220;-49
2023/03/03 09:58:44;;;;;;;18.00;9.40;;;4.00;99.90;;;;;;5052128;28;20195;-49
2023/03/03 10:01:39;;;;;;;23.27;15.48;;;4.40;99.90;;;;;;5053619;28;20220;-48
2023/03/03 10:04:35;;;;;;;22.10;16.08;;;4.50;99.90;;;;;;5053672;28;20238;-49
2023/03/03 10:07:20;;;;;;;32.58;22.50;;;4.60;99.90;;;;;;5053588;28;20204;-48
2023/03/03 10:10:12;;;;;;;32.03;19.17;;;4.40;99.90;;;;;;5053174;28;20192;-49
2023/03/03 10:12:47;;;;;;;36.70;22.42;;;4.40;99.90;;;;;;5052145;28;20226;-49
2023/03/03 10:15:27;;;;;;;32.80;21.00;;;3.90;99.90;;;;;;5053366;28;20277;-49
2023/03/03 10:18:03;;;;;;;34.78;23.83;;;4.50;99.90;;;;;;5053458;28;20223;-50
2023/03/03 10:20:52;;;;;;;30.92;20.83;;;4.70;99.90;;;;;;5053536;28;20223;-49
2023/03/03 10:23:23;;;;;;;25.60;18.30;;;4.40;99.90;;;;;;5053318;28;20200;-49
2023/03/03 10:26:03;;;;;;;32.60;20.65;;;4.80;99.90;;;;;;5053119;28;20220;-49
2023/03/03 10:28:59;;;;;;;31.15;21.35;;;4.70;99.90;;;;;;5052480;28;20299;-49
2023/03/03 10:31:36;;;;;;;36.03;19.55;;;4.90;99.90;;;;;;5053008;28;20253;-49
2023/03/03 10:34:12;;;;;;;42.85;22.90;;;4.80;99.90;;;;;;5053277;28;20298;-48
2023/03/03 10:36:48;;;;;;;38.45;23.05;;;5.10;99.90;;;;;;5051429;28;20671;-49
2023/03/03 10:39:29;;;;;;;33.83;23.88;;;5.40;99.90;;;;;;5051588;28;20206;-49
2023/03/03 10:42:21;;;;;;;35.97;20.73;;;4.90;99.90;;;;;;5053015;28;20207;-49
2023/03/03 10:45:04;;;;;;;42.40;28.40;;;5.00;99.90;;;;;;5050805;28;20695;-49
2023/03/03 10:47:52;;;;;;;48.23;26.83;;;5.30;99.90;;;;;;5052712;28;20196;-50
2023/03/03 10:50:27;;;;;;;43.00;28.70;;;5.10;99.90;;;;;;5052367;28;20442;-48
2023/03/03 10:53:13;;;;;;;43.50;27.37;;;5.40;99.90;;;;;;5053119;28;20936;-49
2023/03/03 10:55:48;;;;;;;37.77;26.40;;;5.40;99.90;;;;;;5052573;28;20504;-50
2023/03/03 10:58:44;;;;;;;31.80;20.87;;;5.40;99.90;;;;;;5052248;28;20454;-49
2023/03/03 11:01:25;;;;;;;31.70;21.77;;;5.30;99.90;;;;;;5052578;28;20898;-50
2023/03/03 11:04:11;;;;;;;30.33;19.70;;;5.70;99.90;;;;;;5052429;28;20439;-48
2023/03/03 11:06:48;;;;;;;21.38;15.45;;;5.70;99.90;;;;;;5052306;28;20216;-50
2023/03/03 11:09:35;;;;;;;25.67;15.85;;;5.30;99.90;;;;;;5050513;28;20291;-52
2023/03/03 11:12:17;;;;;;;24.00;15.70;;;5.40;99.90;;;;;;5052311;28;20192;-50
2023/03/03 11:14:51;;;;;;;31.65;18.35;;;5.60;99.90;;;;;;5051884;28;20438;-48
2023/03/03 11:17:27;;;;;;;33.53;20.52;;;5.20;99.90;;;;;;5127757;22;20237;-54
2023/03/03 11:20:02;;;;;;;23.87;15.63;;;5.30;99.90;;;;;;5111636;28;20186;-56
2023/03/03 11:22:38;;;;;;;30.50;16.87;;;5.00;99.90;;;;;;5112055;28;20414;-54
2023/03/03 11:25:23;;;;;;;23.30;16.83;;;5.30;99.90;;;;;;5093039;28;20450;-54
2023/03/03 11:28:06;;;;;;;19.25;14.00;;;5.10;99.90;;;;;;5091246;28;20769;-55
2023/03/03 11:30:50;;;;;;;27.65;15.52;;;6.00;99.90;;;;;;5091522;28;20667;-54
2023/03/03 11:33:22;;;;;;;25.37;15.50;;;5.50;99.90;;;;;;5091458;28;20190;-55
2023/03/03 11:35:59;;;;;;;21.45;12.13;;;5.30;99.90;;;;;;5091165;28;20540;-53
2023/03/03 11:38:38;;;;;;;20.67;13.47;;;5.30;99.90;;;;;;5090915;28;20580;-55
2023/03/03 11:41:14;;;;;;;22.13;14.80;;;5.40;99.90;;;;;;5090904;28;20432;-55
2023/03/03 11:43:45;;;;;;;25.90;15.63;;;5.60;99.90;;;;;;5091071;28;20403;-54
2023/03/03 11:46:16;;;;;;;22.27;14.65;;;5.60;99.90;;;;;;5091118;28;20717;-56
2023/03/03 11:48:51;;;;;;;27.02;17.42;;;5.80;99.90;;;;;;5090534;28;20207;-56
2023/03/03 11:51:23;;;;;;;24.17;15.90;;;5.70;99.90;;;;;;5072905;28;20209;-56
2023/03/03 11:54:03;;;;;;;28.30;17.17;;;5.70;99.90;;;;;;5090631;28;20519;-55
2023/03/03 11:56:35;;;;;;;26.33;14.70;;;5.60;99.90;;;;;;5091195;28;20427;-54
2023/03/03 11:59:15;;;;;;;30.80;16.55;;;5.70;99.90;;;;;;5090715;28;20441;-55
2023/03/03 12:01:49;;;;;;;27.03;16.40;;;6.20;99.90;;;;;;5090877;28;20218;-55
2023/03/03 12:04:22;;;;;;;28.57;17.80;;;5.90;99.90;;;;;;5090708;28;20897;-55
2023/03/03 12:07:05;;;;;;;24.83;15.83;;;5.40;99.90;;;;;;5091249;28;20788;-55
2023/03/03 12:09:43;;;;;;;31.83;19.70;;;5.70;99.90;;;;;;5090498;28;20416;-55
2023/03/03 12:12:15;;;;;;;33.77;20.50;;;5.90;99.90;;;;;;5090825;28;20453;-54
2023/03/03 12:15:02;;;;;;;27.90;17.50;;;6.00;99.90;;;;;;5090841;28;20412;-57
2023/03/03 12:17:50;;;;;;;25.13;14.80;;;6.40;99.90;;;;;;5090939;28;20806;-56
2023/03/03 12:20:30;;;;;;;22.30;14.30;;;6.10;99.90;;;;;;5090846;28;20433;-55
2023/03/03 12:23:11;;;;;;;30.43;17.80;;;6.00;99.90;;;;;;5091178;28;20447;-55
2023/03/03 12:25:42;;;;;;;41.60;26.73;;;6.20;99.90;;;;;;5091206;28;20468;-55
2023/03/03 12:28:14;;;;;;;35.50;24.77;;;5.90;99.90;;;;;;5090734;28;20436;-56
2023/03/03 12:31:02;;;;;;;41.17;29.13;;;5.90;99.90;;;;;;5091602;28;20425;-55
2023/03/03 12:33:51;;;;;;;42.90;28.03;;;6.20;99.90;;;;;;5090844;28;20508;-55
2023/03/03 12:36:33;;;;;;;45.47;27.73;;;6.10;99.90;;;;;;5091061;28;20447;-54
2023/03/03 12:39:06;;;;;;;37.27;24.80;;;6.20;99.90;;;;;;5090882;28;20413;-55
2023/03/03 12:41:37;;;;;;;36.77;24.73;;;5.90;99.90;;;;;;5073280;28;20432;-56
2023/03/03 12:44:12;;;;;;;45.23;28.70;;;6.60;99.90;;;;;;5091016;28;20436;-55
2023/03/03 12:46:46;;;;;;;50.57;32.70;;;6.70;99.90;;;;;;5091022;28;20787;-54
2023/03/03 12:49:13;;;;;;;33.80;22.47;;;6.10;99.90;;;;;;5090499;28;20400;-55
2023/03/03 12:52:08;;;;;;;56.63;25.10;;;6.70;99.90;;;;;;5090927;28;20409;-55
2023/03/03 12:54:49;;;;;;;33.37;23.60;;;6.60;99.90;;;;;;5090523;28;20425;-56
2023/03/03 12:57:25;;;;;;;34.13;22.50;;;6.70;99.90;;;;;;5090735;28;20459;-54
2023/03/03 13:00:13;;;;;;;33.40;20.73;;;6.40;99.90;;;;;;5090568;28;20503;-55
2023/03/03 13:02:47;;;;;;;33.43;19.73;;;6.50;99.90;;;;;;5093489;28;20434;-58